Scituate, Rhode Island
Current Conditions -  °F | °C
As of 9:51 PM on Tuesday 25 Nov 2014 (Local Time) from KPVD Reporting Station
Overcast Overcast  
Wind Chill: 42°   Ceiling: 18000
Heat Index: 46°   Visibility: 10mi
Dew Point: 30°   Wind: 7mph
Humidity: 54%   Direction: 230°SW
Pressure: 30.1"   Gusts: NA
Location:  41.7807°N, 71.7237°W
Report Text: KPVD 260251Z 23006KT 10SM FEW060 BKN180 OVC250 08/M01 A3010 RMK AO2 SLP191 T00781011 51025
Loading
Personal Weather Stations






























Interactive Weather Map New forecast layout! Learn more

10-Day Weather Forecast

Advertisements
Track Severe Weather on mobile